Weather at Točná Airfield

Public forecast

Using degrees Celsius for public forecast. Weather courtesy of forecast.io.

Closest aviation weather report (METAR) to Točná Airfield

Closest report is Kbely Air Base, 9.3 nm (17.3 km) NNE. Retrieved 2021/01/18 05:30 UTC (28 minutes ago):

LKKB 180530Z 19005KT 9999 -SN OVC016 M04/M07 Q1019 NOSIG

Closest aviation forecast (TAF) to Točná Airfield

Closest forecast is Kbely Air Base, 9.3 nm (17.3 km) NNE. Retrieved 2021-01-18 00:00 UTC (6 hours ago):

TAF LKKB 172300Z 1800/1900 25006KT 9999 BKN028 PROB40 TEMPO 1800/1803 5000 BR SCT040 BECMG 1803/1805 BKN022 TEMPO 1805/1817 4000 SN BR BKN010 OVC015 BECMG 1810/1812 28008KT BECMG 1816/1818 26014KT BKN030 TEMPO 1818/1900 26014G24KT